createdAt,value
2019-05-17T00:02:29.714Z,2.00
2019-05-17T00:04:59.791Z,2.00
2019-05-17T00:07:29.869Z,2.00
2019-05-17T00:09:59.943Z,1.00
2019-05-17T00:12:30.007Z,2.00
2019-05-17T00:15:00.208Z,2.00
2019-05-17T00:17:30.269Z,2.00
2019-05-17T00:20:00.391Z,2.00
2019-05-17T00:22:30.446Z,2.00
2019-05-17T00:25:00.588Z,2.00
2019-05-17T00:27:30.711Z,2.40
2019-05-17T00:30:00.775Z,2.00
2019-05-17T00:32:30.822Z,2.20
2019-05-17T00:35:00.914Z,3.00
2019-05-17T00:37:31.038Z,0.60
2019-05-17T00:40:01.147Z,3.20
2019-05-17T00:42:31.287Z,2.00
2019-05-17T00:45:01.369Z,2.00
2019-05-17T00:47:31.529Z,2.40
2019-05-17T00:50:01.636Z,1.00
2019-05-17T00:52:31.678Z,2.00
2019-05-17T00:55:01.794Z,2.40
2019-05-17T00:57:32.259Z,1.80
2019-05-17T01:00:02.557Z,2.00
2019-05-17T01:02:36.220Z,1.20
2019-05-17T01:05:07.432Z,1.80
2019-05-17T01:07:37.903Z,1.60
2019-05-17T01:10:08.992Z,2.60
2019-05-17T01:12:39.057Z,2.00
2019-05-17T01:15:10.046Z,2.00
2019-05-17T01:17:40.105Z,2.80
2019-05-17T01:20:10.784Z,3.00
2019-05-17T01:22:41.084Z,2.00
2019-05-17T01:25:11.806Z,2.40
2019-05-17T01:27:41.851Z,3.00
2019-05-17T01:30:12.433Z,2.00
2019-05-17T01:32:42.459Z,2.00
2019-05-17T01:35:12.599Z,2.00
2019-05-17T01:37:42.685Z,2.00
2019-05-17T01:40:13.331Z,2.00
2019-05-17T01:42:46.507Z,2.20
2019-05-17T01:45:17.003Z,2.40
2019-05-17T01:47:47.614Z,2.00
2019-05-17T01:50:18.791Z,2.00
2019-05-17T01:52:48.842Z,1.60
2019-05-17T01:55:18.931Z,2.20
2019-05-17T01:57:49.195Z,2.20
2019-05-17T02:00:21.306Z,2.00
2019-05-17T02:02:57.742Z,2.60
2019-05-17T02:05:28.125Z,2.00
2019-05-17T02:07:58.210Z,2.00
2019-05-17T02:10:28.309Z,2.20
2019-05-17T02:12:58.368Z,2.80
2019-05-17T02:15:28.465Z,2.80
2019-05-17T02:17:58.516Z,2.00
2019-05-17T02:20:28.631Z,2.00
2019-05-17T02:22:58.715Z,2.00
2019-05-17T02:25:28.819Z,1.60
2019-05-17T02:27:58.868Z,2.80
2019-05-17T02:30:28.969Z,2.20
2019-05-17T02:33:03.398Z,2.20
2019-05-17T02:35:33.633Z,2.40
2019-05-17T02:38:03.543Z,1.00
2019-05-17T02:40:34.382Z,2.00
2019-05-17T02:43:04.530Z,2.00
2019-05-17T02:45:34.741Z,2.40
2019-05-17T02:48:05.959Z,1.60
2019-05-17T02:50:36.061Z,2.20
2019-05-17T02:53:06.109Z,2.00
2019-05-17T02:55:36.186Z,2.00
2019-05-17T02:58:06.477Z,2.40
2019-05-17T03:00:36.511Z,1.40
2019-05-17T03:03:06.683Z,2.00
2019-05-17T03:05:36.809Z,1.00
2019-05-17T03:08:06.923Z,1.20
2019-05-17T03:10:36.947Z,1.60
2019-05-17T03:13:07.070Z,2.00
2019-05-17T03:15:37.131Z,1.80
2019-05-17T03:18:07.398Z,2.20
2019-05-17T03:20:37.446Z,2.00
2019-05-17T03:23:07.544Z,1.20
2019-05-17T03:25:38.804Z,1.60
2019-05-17T03:28:08.982Z,1.60
2019-05-17T03:30:46.759Z,1.00
2019-05-17T03:33:16.458Z,1.00
2019-05-17T03:35:47.601Z,2.00
2019-05-17T03:38:17.721Z,1.00
2019-05-17T03:41:07.639Z,1.00
2019-05-17T03:43:22.405Z,2.00
2019-05-17T03:45:53.404Z,1.00
2019-05-17T03:48:23.205Z,1.60
2019-05-17T03:50:53.338Z,2.00
2019-05-17T03:53:23.514Z,5.40
2019-05-17T03:55:54.250Z,2.40
2019-05-17T03:58:24.569Z,4.60
2019-05-17T04:00:54.662Z,3.00
2019-05-17T04:03:24.802Z,2.00
2019-05-17T04:05:55.250Z,2.00
2019-05-17T04:08:25.599Z,3.00
2019-05-17T04:10:55.644Z,2.20
2019-05-17T04:13:26.054Z,2.60
2019-05-17T04:15:56.343Z,2.00
2019-05-17T04:18:26.478Z,2.80
2019-05-17T04:20:56.522Z,2.00
2019-05-17T04:23:26.683Z,1.00
2019-05-17T04:25:56.911Z,1.00
2019-05-17T04:28:27.007Z,1.80
2019-05-17T04:30:57.058Z,1.00
2019-05-17T04:33:27.217Z,2.00
2019-05-17T04:35:57.320Z,2.00
2019-05-17T04:38:27.414Z,1.00
2019-05-17T04:40:57.721Z,1.80
2019-05-17T04:43:27.901Z,2.00
2019-05-17T04:45:57.969Z,1.40
2019-05-17T04:48:28.133Z,2.60
2019-05-17T04:50:58.537Z,2.00
2019-05-17T04:53:32.489Z,1.40
2019-05-17T04:56:03.105Z,2.20
2019-05-17T04:58:33.760Z,1.00
2019-05-17T05:01:04.570Z,1.00
2019-05-17T05:03:35.122Z,2.00
2019-05-17T05:06:06.576Z,2.00
2019-05-17T05:08:36.711Z,1.40
2019-05-17T05:11:06.771Z,2.00
2019-05-17T05:13:36.889Z,1.20
2019-05-17T05:16:06.950Z,3.20
2019-05-17T05:18:37.126Z,1.00
2019-05-17T05:21:07.147Z,2.00
2019-05-17T05:23:37.561Z,2.00
2019-05-17T05:26:07.839Z,2.20
2019-05-17T05:28:38.147Z,1.40
2019-05-17T05:31:08.414Z,2.20
2019-05-17T05:33:38.543Z,2.00
2019-05-17T05:36:08.712Z,2.00
2019-05-17T05:38:38.818Z,2.00
2019-05-17T05:41:08.902Z,2.00
2019-05-17T05:43:38.998Z,2.00
2019-05-17T05:46:11.537Z,2.00
2019-05-17T05:48:41.559Z,1.80
2019-05-17T05:51:13.657Z,2.60
2019-05-17T05:53:44.462Z,1.40
2019-05-17T05:56:14.507Z,1.60
2019-05-17T05:58:44.690Z,1.80
2019-05-17T06:01:14.761Z,0.40
2019-05-17T06:03:45.403Z,2.00
2019-05-17T06:06:15.501Z,2.80
2019-05-17T06:08:45.686Z,1.80
2019-05-17T06:11:15.741Z,1.80
2019-05-17T06:13:45.871Z,2.60
2019-05-17T06:16:15.924Z,1.60
2019-05-17T06:18:46.018Z,1.60
2019-05-17T06:21:16.090Z,2.00
2019-05-17T06:23:46.303Z,2.40
2019-05-17T06:26:18.165Z,0.00
2019-05-17T06:28:48.435Z,2.00
2019-05-17T06:31:18.495Z,3.00
2019-05-17T06:33:48.824Z,2.00
2019-05-17T06:36:18.913Z,0.00
2019-05-17T06:38:48.982Z,1.60
2019-05-17T06:41:21.188Z,2.20
2019-05-17T06:43:52.417Z,3.00
2019-05-17T06:46:22.810Z,1.80
2019-05-17T06:48:53.091Z,2.00
2019-05-17T06:51:23.590Z,2.00
2019-05-17T06:53:53.645Z,1.80
2019-05-17T06:56:23.738Z,1.80
2019-05-17T06:58:53.853Z,3.00
2019-05-17T07:01:23.980Z,1.00
2019-05-17T07:03:54.293Z,3.00
2019-05-17T07:06:26.004Z,2.00
2019-05-17T07:08:56.100Z,2.00
2019-05-17T07:11:26.163Z,1.00
2019-05-17T07:13:56.284Z,2.00
2019-05-17T07:16:26.390Z,3.00
2019-05-17T07:18:56.513Z,2.00
2019-05-17T07:21:26.583Z,1.00
2019-05-17T07:23:56.688Z,1.00
2019-05-17T07:26:26.733Z,1.80
2019-05-17T07:28:59.136Z,2.00
2019-05-17T07:31:29.776Z,1.40
2019-05-17T07:34:00.128Z,1.80
2019-05-17T07:36:30.740Z,1.00
2019-05-17T07:39:00.932Z,2.00
2019-05-17T07:41:32.600Z,3.00
2019-05-17T07:44:02.708Z,2.00
2019-05-17T07:46:33.026Z,1.60
2019-05-17T07:49:03.209Z,1.20
2019-05-17T07:51:34.373Z,2.00
2019-05-17T07:54:04.830Z,1.40
2019-05-17T07:56:35.140Z,1.00
2019-05-17T07:59:05.271Z,0.00
2019-05-17T08:01:35.324Z,1.00
2019-05-17T08:04:05.663Z,1.80
2019-05-17T08:06:36.013Z,1.00
2019-05-17T08:09:13.260Z,3.00
2019-05-17T08:11:39.741Z,2.00
2019-05-17T08:14:10.533Z,0.80
2019-05-17T08:16:40.886Z,1.00
2019-05-17T08:19:11.245Z,1.00
2019-05-17T08:21:41.407Z,0.40
2019-05-17T08:24:11.523Z,1.60
2019-05-17T08:26:41.594Z,1.80
2019-05-17T08:29:11.731Z,1.80
2019-05-17T08:31:41.898Z,1.00
2019-05-17T08:34:12.278Z,0.40
2019-05-17T08:36:42.344Z,2.00
2019-05-17T08:39:12.434Z,1.60
2019-05-17T08:41:42.765Z,1.60
2019-05-17T08:44:12.881Z,2.40
2019-05-17T08:46:43.083Z,1.00
2019-05-17T08:49:13.171Z,2.00
2019-05-17T08:51:43.230Z,1.00
2019-05-17T08:54:13.411Z,3.00
2019-05-17T08:56:43.496Z,1.00
2019-05-17T08:59:13.638Z,2.00
2019-05-17T09:01:43.685Z,2.00
2019-05-17T09:04:14.075Z,1.00
2019-05-17T09:06:45.658Z,3.00
2019-05-17T09:09:15.934Z,2.20
2019-05-17T09:11:45.983Z,2.00
2019-05-17T09:14:15.996Z,2.00
2019-05-17T09:16:46.070Z,1.00
2019-05-17T09:19:16.145Z,2.40
2019-05-17T09:21:46.172Z,1.40
2019-05-17T09:24:16.252Z,2.00
2019-05-17T09:26:46.306Z,1.00
2019-05-17T09:29:16.377Z,2.00
2019-05-17T09:31:46.402Z,2.00
2019-05-17T09:34:16.505Z,2.00
2019-05-17T09:36:46.768Z,1.60
2019-05-17T09:39:16.905Z,2.00
2019-05-17T09:41:46.965Z,2.00
2019-05-17T09:44:17.029Z,1.40
2019-05-17T09:46:50.395Z,3.00
2019-05-17T09:49:20.682Z,2.80
2019-05-17T09:51:50.726Z,2.00
2019-05-17T09:54:20.825Z,3.00
2019-05-17T09:56:50.882Z,2.00
2019-05-17T09:59:20.995Z,0.40
2019-05-17T10:01:51.022Z,2.00
2019-05-17T10:04:22.225Z,3.00
2019-05-17T10:06:52.290Z,1.80
2019-05-17T10:09:22.429Z,2.80
2019-05-17T10:11:52.491Z,2.20
2019-05-17T10:14:28.121Z,1.00
2019-05-17T10:16:54.299Z,2.80
2019-05-17T10:19:24.330Z,2.00
2019-05-17T10:21:54.382Z,2.80
2019-05-17T10:24:35.994Z,2.00
2019-05-17T10:26:56.383Z,2.00
2019-05-17T10:29:26.551Z,2.00
2019-05-17T10:31:56.835Z,3.00
2019-05-17T10:34:29.330Z,0.40
2019-05-17T10:36:58.690Z,2.00
2019-05-17T10:39:29.801Z,2.00
2019-05-17T10:41:59.860Z,1.60
2019-05-17T10:44:43.087Z,2.00
2019-05-17T10:47:02.039Z,2.00
2019-05-17T10:49:32.082Z,2.00
2019-05-17T10:52:02.107Z,2.60
2019-05-17T10:54:32.186Z,3.00
2019-05-17T10:57:02.224Z,3.00
2019-05-17T10:59:32.307Z,3.00
2019-05-17T11:02:02.328Z,3.20
2019-05-17T11:04:32.409Z,2.00
2019-05-17T11:07:02.448Z,3.00
2019-05-17T11:09:32.513Z,1.80
2019-05-17T11:12:02.625Z,3.00
2019-05-17T11:14:32.768Z,2.00
2019-05-17T11:17:02.813Z,2.00
2019-05-17T11:19:32.894Z,2.00
2019-05-17T11:22:02.935Z,2.00
2019-05-17T11:24:33.025Z,2.40
2019-05-17T11:27:03.055Z,2.80
2019-05-17T11:29:33.417Z,2.00
2019-05-17T11:32:03.463Z,2.00
2019-05-17T11:34:33.570Z,2.40
2019-05-17T11:37:03.671Z,2.40
2019-05-17T11:39:33.835Z,2.40
2019-05-17T11:42:04.929Z,2.20
2019-05-17T11:44:35.310Z,2.20
2019-05-17T11:47:05.872Z,2.20
2019-05-17T11:49:36.045Z,2.60
2019-05-17T11:52:06.113Z,2.00
2019-05-17T11:54:36.237Z,2.60
2019-05-17T11:57:06.310Z,2.40
2019-05-17T11:59:36.404Z,3.60
2019-05-17T12:02:06.583Z,3.00
2019-05-17T12:04:36.636Z,3.00
2019-05-17T12:07:06.763Z,4.00
2019-05-17T12:09:37.874Z,4.60
2019-05-17T12:12:08.193Z,3.60
2019-05-17T12:14:38.363Z,7.00
2019-05-17T12:17:08.512Z,3.00
2019-05-17T12:19:38.597Z,6.80
2019-05-17T12:22:08.638Z,3.00
2019-05-17T12:24:38.678Z,3.00
2019-05-17T12:27:08.715Z,3.00
2019-05-17T12:29:38.966Z,2.80
2019-05-17T12:32:09.187Z,3.00
2019-05-17T12:34:39.384Z,3.00
2019-05-17T12:37:09.437Z,2.60
2019-05-17T12:39:41.118Z,3.60
2019-05-17T12:42:11.202Z,1.80
2019-05-17T12:44:41.370Z,2.40
2019-05-17T12:47:11.572Z,2.60
2019-05-17T12:49:43.086Z,4.00
2019-05-17T12:52:13.226Z,2.60
2019-05-17T12:54:43.586Z,2.00
2019-05-17T12:57:13.952Z,3.00
2019-05-17T12:59:44.179Z,3.00
2019-05-17T13:02:14.230Z,1.60
2019-05-17T13:04:44.307Z,1.00
2019-05-17T13:07:14.363Z,2.20
2019-05-17T13:09:44.468Z,3.00
2019-05-17T13:12:14.639Z,3.00
2019-05-17T13:14:44.761Z,2.40
2019-05-17T13:17:14.838Z,2.60
2019-05-17T13:19:44.938Z,2.00
2019-05-17T13:22:15.057Z,3.00
2019-05-17T13:24:45.163Z,1.00
2019-05-17T13:27:15.288Z,3.00
2019-05-17T13:29:45.370Z,4.20
2019-05-17T13:32:15.449Z,2.80
2019-05-17T13:34:45.569Z,2.80
2019-05-17T13:37:15.630Z,3.00
2019-05-17T13:39:46.022Z,2.40
2019-05-17T13:42:16.108Z,2.00
2019-05-17T13:44:47.344Z,2.00
2019-05-17T13:47:17.558Z,2.60
2019-05-17T13:49:47.679Z,1.20
2019-05-17T13:52:17.796Z,2.00
2019-05-17T13:54:47.900Z,2.00
2019-05-17T13:57:17.946Z,2.80
2019-05-17T13:59:48.063Z,2.80
2019-05-17T14:02:18.383Z,2.20
2019-05-17T14:04:48.498Z,3.00
2019-05-17T14:07:18.543Z,2.00
2019-05-17T14:09:48.593Z,2.00
2019-05-17T14:12:18.682Z,3.40
2019-05-17T14:14:48.748Z,2.00
2019-05-17T14:17:18.770Z,2.00
2019-05-17T14:19:48.839Z,2.60
2019-05-17T14:22:18.880Z,2.40
2019-05-17T14:24:49.052Z,3.00
2019-05-17T14:27:19.221Z,3.00
2019-05-17T14:29:49.291Z,2.00
2019-05-17T14:32:19.464Z,2.00
2019-05-17T14:34:49.513Z,2.00
2019-05-17T14:37:19.612Z,2.00
2019-05-17T14:39:49.691Z,2.40
2019-05-17T14:42:19.807Z,3.40
2019-05-17T14:44:49.865Z,3.00
2019-05-17T14:47:19.975Z,2.00
2019-05-17T14:49:51.257Z,2.40
2019-05-17T14:52:24.251Z,3.00
2019-05-17T14:54:54.262Z,2.20
2019-05-17T14:57:24.328Z,2.20
2019-05-17T14:59:54.346Z,2.00
2019-05-17T15:02:24.725Z,2.20
2019-05-17T15:04:54.814Z,2.20
2019-05-17T15:07:24.929Z,1.00
2019-05-17T15:09:55.052Z,2.00
2019-05-17T15:12:28.280Z,5.20
2019-05-17T15:14:56.833Z,2.40
2019-05-17T15:17:27.115Z,2.00
2019-05-17T15:19:57.150Z,2.40
2019-05-17T15:22:27.228Z,1.40
2019-05-17T15:24:57.252Z,3.00
2019-05-17T15:27:27.326Z,3.60
2019-05-17T15:29:57.320Z,2.00
2019-05-17T15:32:27.366Z,3.00
2019-05-17T15:34:57.407Z,1.60
2019-05-17T15:37:27.494Z,1.00
2019-05-17T15:39:57.538Z,2.80
2019-05-17T15:42:42.889Z,1.60
2019-05-17T15:44:59.259Z,2.00
2019-05-17T15:47:30.572Z,2.00
2019-05-17T15:50:00.626Z,1.00
2019-05-17T15:52:30.701Z,0.80
2019-05-17T15:55:00.746Z,1.80
2019-05-17T15:57:30.838Z,2.40
2019-05-17T16:00:00.868Z,1.80
2019-05-17T16:02:31.049Z,2.60
2019-05-17T16:05:01.055Z,2.00
2019-05-17T16:07:31.090Z,2.00
2019-05-17T16:10:01.125Z,2.60
2019-05-17T16:12:31.152Z,2.80
2019-05-17T16:15:01.231Z,2.00
2019-05-17T16:17:32.573Z,2.00
2019-05-17T16:20:02.671Z,1.40
2019-05-17T16:22:32.734Z,1.20
2019-05-17T16:25:02.858Z,1.00
2019-05-17T16:27:32.960Z,1.40
2019-05-17T16:30:03.025Z,0.80
2019-05-17T16:32:33.138Z,1.00
2019-05-17T16:35:03.121Z,0.40
2019-05-17T16:37:33.225Z,1.60
2019-05-17T16:40:03.649Z,0.00
2019-05-17T16:42:33.706Z,0.80
2019-05-17T16:45:04.017Z,1.40
2019-05-17T16:47:35.165Z,1.80
2019-05-17T16:50:06.929Z,1.80
2019-05-17T16:52:37.002Z,0.80
2019-05-17T16:55:07.310Z,1.20
2019-05-17T16:57:37.923Z,2.60
2019-05-17T17:00:10.834Z,1.60
2019-05-17T17:02:42.031Z,1.00
2019-05-17T17:05:12.050Z,1.80
2019-05-17T17:07:42.080Z,2.00
2019-05-17T17:10:12.211Z,1.20
2019-05-17T17:12:42.318Z,0.60
2019-05-17T17:15:12.830Z,1.40
2019-05-17T17:17:42.930Z,1.40
2019-05-17T17:20:13.238Z,3.00
2019-05-17T17:22:43.443Z,1.00
2019-05-17T17:25:13.663Z,1.40
2019-05-17T17:27:43.767Z,3.00
2019-05-17T17:30:14.806Z,2.00
2019-05-17T17:32:44.924Z,4.40
2019-05-17T17:35:15.470Z,6.20
2019-05-17T17:37:45.541Z,6.60
2019-05-17T17:40:18.443Z,6.20
2019-05-17T17:42:48.523Z,3.40
2019-05-17T17:45:20.838Z,1.60
2019-05-17T17:47:52.070Z,4.00
2019-05-17T17:50:22.078Z,3.60
2019-05-17T17:52:52.442Z,4.00
2019-05-17T17:55:22.690Z,3.00
2019-05-17T17:57:52.723Z,5.40
2019-05-17T18:00:22.694Z,24.00
2019-05-17T18:02:52.814Z,8.60
2019-05-17T18:05:25.055Z,4.60
2019-05-17T18:07:54.616Z,7.20
2019-05-17T18:10:27.537Z,5.80
2019-05-17T18:12:57.591Z,6.60
2019-05-17T18:15:30.609Z,5.60
2019-05-17T18:18:01.108Z,5.00
2019-05-17T18:20:31.058Z,20.20
2019-05-17T18:23:01.127Z,1.00
2019-05-17T18:25:31.153Z,6.00
2019-05-17T18:28:03.708Z,4.80
2019-05-17T18:30:33.788Z,5.00
2019-05-17T18:33:03.975Z,5.80
2019-05-17T18:35:34.501Z,4.20
2019-05-17T18:38:05.210Z,6.00
2019-05-17T18:40:35.234Z,6.20
2019-05-17T18:43:05.419Z,5.00
2019-05-17T18:45:36.611Z,4.60
2019-05-17T18:48:07.037Z,4.00
2019-05-17T18:50:37.064Z,6.40
2019-05-17T18:53:15.979Z,6.00
2019-05-17T18:55:38.832Z,6.00
2019-05-17T18:58:08.892Z,5.00
2019-05-17T19:00:38.946Z,3.80
2019-05-17T19:03:09.022Z,4.60
2019-05-17T19:05:39.044Z,6.00
2019-05-17T19:08:09.184Z,4.00
2019-05-17T19:10:39.189Z,6.20
2019-05-17T19:13:09.185Z,12.80
2019-05-17T19:15:39.126Z,12.60
2019-05-17T19:18:09.826Z,7.00
2019-05-17T19:20:40.020Z,9.00
2019-05-17T19:23:10.402Z,7.00
2019-05-17T19:25:40.544Z,6.40
2019-05-17T19:28:10.625Z,6.00
2019-05-17T19:30:40.855Z,6.40
2019-05-17T19:33:10.995Z,6.00
2019-05-17T19:35:41.125Z,7.20
2019-05-17T19:38:11.161Z,6.00
2019-05-17T19:40:41.187Z,7.40
2019-05-17T19:43:11.299Z,7.20
2019-05-17T19:45:41.298Z,7.00
2019-05-17T19:48:12.488Z,6.40
2019-05-17T19:50:42.503Z,5.00
2019-05-17T19:53:12.561Z,7.40
2019-05-17T19:55:42.498Z,7.80
2019-05-17T19:58:12.710Z,7.00
2019-05-17T20:00:42.727Z,6.40
2019-05-17T20:03:12.803Z,7.80
2019-05-17T20:05:42.939Z,5.80
2019-05-17T20:08:12.985Z,5.00
2019-05-17T20:10:43.215Z,5.60
2019-05-17T20:13:14.241Z,12.40
2019-05-17T20:15:44.175Z,10.60
2019-05-17T20:18:14.221Z,9.00
2019-05-17T20:20:44.327Z,8.40
2019-05-17T20:23:14.642Z,6.20
2019-05-17T20:25:58.107Z,6.80
2019-05-17T20:28:28.194Z,6.00
2019-05-17T20:30:58.206Z,6.40
2019-05-17T20:33:28.303Z,5.40
2019-05-17T20:35:59.618Z,6.00
2019-05-17T20:38:29.667Z,6.60
2019-05-17T20:40:59.713Z,5.20
2019-05-17T20:43:29.779Z,6.00
2019-05-17T20:45:59.806Z,5.60
2019-05-17T20:48:29.913Z,5.40
2019-05-17T20:50:59.935Z,6.00
2019-05-17T20:53:30.273Z,6.40
2019-05-17T20:56:00.271Z,6.20
2019-05-17T20:58:30.320Z,6.00
2019-05-17T21:01:00.352Z,6.00
2019-05-17T21:03:30.653Z,6.60
2019-05-17T21:06:00.683Z,8.00
2019-05-17T21:08:44.840Z,7.60
2019-05-17T21:11:02.434Z,7.00
2019-05-17T21:13:34.083Z,7.20
2019-05-17T21:16:04.111Z,5.00
2019-05-17T21:18:34.205Z,6.00
2019-05-17T21:21:04.250Z,6.00
2019-05-17T21:23:34.284Z,5.20
2019-05-17T21:26:04.421Z,6.60
2019-05-17T21:28:35.239Z,6.20
2019-05-17T21:31:07.917Z,5.60
2019-05-17T21:33:36.925Z,7.00
2019-05-17T21:36:06.959Z,4.80
2019-05-17T21:38:37.004Z,6.00
2019-05-17T21:41:07.031Z,5.80
2019-05-17T21:43:37.163Z,5.20
2019-05-17T21:46:07.257Z,6.60
2019-05-17T21:48:37.343Z,5.80
2019-05-17T21:51:07.558Z,6.60
2019-05-17T21:53:37.641Z,6.00
2019-05-17T21:56:07.768Z,7.00
2019-05-17T21:58:37.958Z,7.80
2019-05-17T22:01:11.066Z,6.40
2019-05-17T22:03:41.222Z,5.20
2019-05-17T22:06:11.258Z,6.20
2019-05-17T22:08:41.316Z,6.40
2019-05-17T22:11:11.351Z,6.20
2019-05-17T22:13:41.398Z,6.00
2019-05-17T22:16:19.437Z,5.60
2019-05-17T22:18:44.224Z,6.00
2019-05-17T22:21:14.267Z,5.80
2019-05-17T22:23:44.341Z,5.20
2019-05-17T22:26:14.361Z,4.40
2019-05-17T22:28:44.617Z,4.40
2019-05-17T22:31:14.648Z,6.60
2019-05-17T22:33:44.712Z,6.60
2019-05-17T22:36:14.724Z,5.80
2019-05-17T22:38:44.797Z,6.00
2019-05-17T22:41:14.849Z,5.00
2019-05-17T22:43:44.883Z,6.00
2019-05-17T22:46:14.900Z,6.00
2019-05-17T22:48:44.983Z,5.00
2019-05-17T22:51:14.994Z,5.40
2019-05-17T22:53:45.095Z,5.60
2019-05-17T22:56:15.135Z,4.00
2019-05-17T22:58:45.209Z,4.00
2019-05-17T23:01:16.345Z,4.80
2019-05-17T23:03:46.410Z,5.60
2019-05-17T23:06:16.420Z,4.60
2019-05-17T23:08:46.504Z,5.00
2019-05-17T23:11:16.510Z,5.40
2019-05-17T23:13:47.705Z,4.00
2019-05-17T23:16:18.409Z,5.00
2019-05-17T23:18:50.089Z,5.20
2019-05-17T23:21:20.127Z,5.00
2019-05-17T23:23:50.205Z,5.60
2019-05-17T23:26:20.221Z,5.00
2019-05-17T23:28:50.305Z,5.00
2019-05-17T23:31:20.351Z,6.80
2019-05-17T23:33:50.395Z,6.00
2019-05-17T23:36:20.648Z,5.00
2019-05-17T23:38:50.727Z,5.00
2019-05-17T23:41:20.764Z,5.00
2019-05-17T23:43:50.816Z,5.00
2019-05-17T23:46:20.859Z,5.40
2019-05-17T23:48:50.914Z,6.00
2019-05-17T23:51:20.953Z,5.60
2019-05-17T23:53:51.121Z,6.20
2019-05-17T23:56:22.610Z,6.00
2019-05-17T23:58:52.873Z,5.40
